sensor_id;sensor_type;location;lat;lon;timestamp;pressure;altitude;pressure_sealevel;temperature;humidity
53758;BME280;39674;59.860;30.672;2023-01-10T10:17:08;101506.69;;;-9.22;100.00
53758;BME280;39674;59.860;30.672;2023-01-10T10:22:45;101488.09;;;-9.17;100.00
53758;BME280;39674;59.860;30.672;2023-01-10T12:52:46;101436.44;;;-7.69;100.00
53758;BME280;39674;59.860;30.672;2023-01-10T12:55:43;101432.50;;;-7.60;100.00
53758;BME280;39674;59.860;30.672;2023-01-10T16:44:39;101384.22;;;-4.59;100.00
53758;BME280;39674;59.860;30.672;2023-01-10T16:48:17;101390.25;;;-4.59;100.00
53758;BME280;39674;59.860;30.672;2023-01-10T16:51:46;101385.19;;;-4.54;100.00
53758;BME280;39674;59.860;30.672;2023-01-10T16:54:38;101388.59;;;-4.55;100.00
53758;BME280;39674;59.860;30.672;2023-01-10T16:58:15;101393.03;;;-4.49;100.00
53758;BME280;39674;59.860;30.672;2023-01-10T17:01:36;101381.97;;;-4.44;100.00
53758;BME280;39674;59.860;30.672;2023-01-10T17:04:28;101385.41;;;-4.45;100.00
53758;BME280;39674;59.860;30.672;2023-01-10T17:07:08;101379.53;;;-4.38;100.00
53758;BME280;39674;59.860;30.672;2023-01-10T17:09:43;101377.84;;;-4.36;100.00
53758;BME280;39674;59.860;30.672;2023-01-10T17:12:43;101391.69;;;-4.30;100.00
53758;BME280;39674;59.860;30.672;2023-01-10T17:15:27;101384.03;;;-4.27;100.00
53758;BME280;39674;59.860;30.672;2023-01-10T17:21:09;101379.78;;;-4.25;100.00
53758;BME280;39674;59.860;30.672;2023-01-10T17:24:22;101382.41;;;-4.22;100.00
53758;BME280;39674;59.860;30.672;2023-01-10T17:27:04;101391.09;;;-4.17;100.00
53758;BME280;39674;59.860;30.672;2023-01-10T17:29:44;101390.34;;;-4.13;100.00
53758;BME280;39674;59.860;30.672;2023-01-10T17:32:29;101388.59;;;-4.14;100.00
53758;BME280;39674;59.860;30.672;2023-01-10T17:35:09;101386.88;;;-4.13;100.00
53758;BME280;39674;59.860;30.672;2023-01-10T17:38:02;101386.91;;;-4.12;100.00
53758;BME280;39674;59.860;30.672;2023-01-10T17:40:50;101386.16;;;-4.06;100.00
53758;BME280;39674;59.860;30.672;2023-01-10T17:43:20;101391.50;;;-3.97;100.00
53758;BME280;39674;59.860;30.672;2023-01-10T17:46:31;101390.63;;;-3.97;100.00
53758;BME280;39674;59.860;30.672;2023-01-10T17:49:07;101390.69;;;-3.94;100.00
53758;BME280;39674;59.860;30.672;2023-01-10T17:51:50;101388.97;;;-3.94;100.00
53758;BME280;39674;59.860;30.672;2023-01-10T17:57:14;101383.97;;;-3.86;100.00
53758;BME280;39674;59.860;30.672;2023-01-10T17:59:57;101384.84;;;-3.84;100.00
53758;BME280;39674;59.860;30.672;2023-01-10T18:03:11;101380.56;;;-3.85;100.00
53758;BME280;39674;59.860;30.672;2023-01-10T18:06:07;101389.25;;;-3.80;100.00
53758;BME280;39674;59.860;30.672;2023-01-10T18:08:58;101382.34;;;-3.81;100.00
53758;BME280;39674;59.860;30.672;2023-01-10T18:11:41;101386.75;;;-3.75;100.00
53758;BME280;39674;59.860;30.672;2023-01-10T18:14:31;101384.00;;;-3.83;100.00
53758;BME280;39674;59.860;30.672;2023-01-10T18:17:20;101378.09;;;-3.77;100.00
53758;BME280;39674;59.860;30.672;2023-01-10T18:20:25;101379.84;;;-3.76;100.00
53758;BME280;39674;59.860;30.672;2023-01-10T18:23:02;101379.06;;;-3.71;100.00
53758;BME280;39674;59.860;30.672;2023-01-10T18:26:11;101385.88;;;-3.76;100.00
53758;BME280;39674;59.860;30.672;2023-01-10T18:28:49;101386.69;;;-3.77;100.00
53758;BME280;39674;59.860;30.672;2023-01-10T18:34:41;101380.06;;;-3.64;100.00
53758;BME280;39674;59.860;30.672;2023-01-10T18:37:12;101382.69;;;-3.61;100.00
53758;BME280;39674;59.860;30.672;2023-01-10T18:39:54;101394.75;;;-3.61;100.00
53758;BME280;39674;59.860;30.672;2023-01-10T18:42:54;101387.91;;;-3.59;100.00
53758;BME280;39674;59.860;30.672;2023-01-10T18:45:47;101384.53;;;-3.55;100.00
53758;BME280;39674;59.860;30.672;2023-01-10T18:48:27;101389.69;;;-3.55;100.00
